createdAt,value
2022-09-01T00:04:25.319Z,0.43
2022-09-01T00:09:27.635Z,0.60
2022-09-01T00:14:32.828Z,0.37
2022-09-01T00:19:36.738Z,0.50
2022-09-01T00:24:38.826Z,0.53
2022-09-01T00:29:44.100Z,0.50
2022-09-01T00:34:47.772Z,0.70
2022-09-01T00:39:49.806Z,0.40
2022-09-01T00:44:52.101Z,0.30
2022-09-01T00:49:55.732Z,0.43
2022-09-01T00:55:00.463Z,0.60
2022-09-01T01:00:08.227Z,0.50
2022-09-01T01:05:15.103Z,0.57
2022-09-01T01:10:22.060Z,0.53
2022-09-01T01:15:24.277Z,0.50
2022-09-01T01:20:29.936Z,0.47
2022-09-01T01:25:37.329Z,0.60
2022-09-01T01:30:42.010Z,0.43
2022-09-01T01:35:44.271Z,0.50
2022-09-01T01:40:47.872Z,0.30
2022-09-01T01:45:53.066Z,0.40
2022-09-01T01:50:56.169Z,0.40
2022-09-01T01:56:01.076Z,0.30
2022-09-01T02:01:03.250Z,0.57
2022-09-01T02:06:08.123Z,0.47
2022-09-01T02:11:11.916Z,0.40
2022-09-01T02:16:14.452Z,0.47
2022-09-01T02:21:19.894Z,0.40
2022-09-01T02:26:23.446Z,0.40
2022-09-01T02:31:25.485Z,0.60
2022-09-01T02:36:27.483Z,0.50
2022-09-01T02:41:30.973Z,0.63
2022-09-01T02:46:33.063Z,0.53
2022-09-01T02:51:34.707Z,0.37
2022-09-01T02:56:37.805Z,0.57
2022-09-01T03:01:40.572Z,0.50
2022-09-01T03:06:43.044Z,0.50
2022-09-01T03:11:48.616Z,0.40
2022-09-01T03:16:51.046Z,0.50
2022-09-01T03:21:52.838Z,0.70
2022-09-01T03:26:58.988Z,0.63
2022-09-01T03:32:00.779Z,0.40
2022-09-01T03:37:03.069Z,0.50
2022-09-01T03:42:07.217Z,0.57
2022-09-01T03:47:09.353Z,0.67
2022-09-01T03:52:11.442Z,0.60
2022-09-01T03:57:15.082Z,0.73
2022-09-01T04:02:17.819Z,1.00
2022-09-01T04:07:19.570Z,0.77
2022-09-01T04:12:22.880Z,0.60
2022-09-01T04:17:29.911Z,0.57
2022-09-01T04:22:32.282Z,0.77
2022-09-01T04:27:35.425Z,0.60
2022-09-01T04:32:37.225Z,0.90
2022-09-01T04:37:38.961Z,0.90
2022-09-01T04:42:42.156Z,0.90
2022-09-01T04:47:43.860Z,0.80
2022-09-01T04:52:46.634Z,1.13
2022-09-01T04:57:50.365Z,0.67
2022-09-01T05:02:54.288Z,0.80
2022-09-01T05:07:56.145Z,1.00
2022-09-01T05:13:01.458Z,0.90
2022-09-01T05:18:03.587Z,1.10
2022-09-01T05:23:05.336Z,1.10
2022-09-01T05:28:08.513Z,1.00
2022-09-01T05:33:10.909Z,0.90
2022-09-01T05:38:12.911Z,0.77
2022-09-01T05:43:16.077Z,0.80
2022-09-01T05:48:17.763Z,0.67
2022-09-01T05:53:20.094Z,0.70
2022-09-01T05:59:22.039Z,0.70
2022-09-01T06:03:49.661Z,0.80
2022-09-01T06:08:52.429Z,1.45
2022-09-01T06:13:55.750Z,0.70
2022-09-01T06:18:57.660Z,0.60
2022-09-01T06:23:59.338Z,0.60
2022-09-01T06:29:06.223Z,0.80
2022-09-01T06:34:10.709Z,0.70
2022-09-01T06:39:12.827Z,0.50
2022-09-01T06:44:16.356Z,1.23
2022-09-01T06:49:18.119Z,0.67
2022-09-01T06:54:21.287Z,0.70
2022-09-01T06:59:34.457Z,0.60
2022-09-01T07:04:36.473Z,0.60
2022-09-01T07:20:26.460Z,0.50
2022-09-01T07:25:35.736Z,0.43
2022-09-01T07:30:52.807Z,0.53
2022-09-01T07:46:40.117Z,0.87
2022-09-01T07:51:41.936Z,0.50
2022-09-01T07:56:43.669Z,0.50
2022-09-01T08:01:47.202Z,0.33
2022-09-01T08:06:49.387Z,0.50
2022-09-01T08:12:01.701Z,0.40
2022-09-01T08:22:27.875Z,0.50
2022-09-01T08:27:29.589Z,0.60
2022-09-01T08:32:33.201Z,0.50
2022-09-01T08:37:35.357Z,0.60
2022-09-01T08:42:50.137Z,0.40
2022-09-01T08:48:50.983Z,0.47
2022-09-01T08:53:27.974Z,0.47
2022-09-01T08:58:32.399Z,0.63
2022-09-01T09:03:45.747Z,0.60
2022-09-01T09:08:59.310Z,0.50
2022-09-01T09:14:08.175Z,0.60
2022-09-01T09:19:19.499Z,0.53
2022-09-01T09:24:27.241Z,0.50
2022-09-01T09:29:36.491Z,0.40
2022-09-01T09:34:42.533Z,0.40
2022-09-01T09:39:44.574Z,0.65
2022-09-01T09:44:49.729Z,0.60
2022-09-01T09:50:22.091Z,0.40
2022-09-01T09:55:27.097Z,0.38
2022-09-01T10:00:32.122Z,0.40
2022-09-01T10:05:39.922Z,0.75
2022-09-01T10:10:44.822Z,0.50
2022-09-01T10:16:03.705Z,0.57
2022-09-01T10:21:15.463Z,0.50
2022-09-01T10:26:22.798Z,0.55
2022-09-01T10:31:29.548Z,0.50
2022-09-01T10:36:36.711Z,0.50
2022-09-01T10:41:59.599Z,0.60
2022-09-01T10:47:15.017Z,0.50
2022-09-01T10:52:55.404Z,0.50
2022-09-01T10:59:29.988Z,0.30
2022-09-01T11:03:42.127Z,0.57
2022-09-01T11:09:01.259Z,0.98
2022-09-01T11:14:18.209Z,0.50
2022-09-01T11:19:38.970Z,0.60
2022-09-01T11:25:12.453Z,0.43
2022-09-01T11:30:21.666Z,0.50
2022-09-01T11:35:27.716Z,0.40
2022-09-01T11:40:32.704Z,0.55
2022-09-01T11:45:45.080Z,0.40
2022-09-01T11:50:58.228Z,0.40
2022-09-01T11:56:13.616Z,0.50
2022-09-01T12:01:20.144Z,0.30
2022-09-01T12:06:24.735Z,0.30
2022-09-01T12:11:30.165Z,0.50
2022-09-01T12:16:35.843Z,0.30
2022-09-01T12:21:40.612Z,0.50
2022-09-01T12:26:42.865Z,0.45
2022-09-01T12:31:48.776Z,0.73
2022-09-01T12:37:03.467Z,0.30
2022-09-01T12:42:12.547Z,0.30
2022-09-01T12:47:46.830Z,0.40
2022-09-01T12:52:52.453Z,0.50
2022-09-01T12:57:57.136Z,0.40
2022-09-01T13:03:12.183Z,0.30
2022-09-01T13:08:18.375Z,0.40
2022-09-01T13:13:21.830Z,0.40
2022-09-01T13:18:26.089Z,0.40
2022-09-01T13:23:27.771Z,0.30
2022-09-01T13:28:29.911Z,0.30
2022-09-01T13:34:09.338Z,0.30
2022-09-01T13:38:58.670Z,0.47
2022-09-01T13:44:00.437Z,0.40
2022-09-01T13:49:04.981Z,0.50
2022-09-01T13:54:25.616Z,0.50
2022-09-01T13:59:27.679Z,0.40
2022-09-01T14:04:31.276Z,0.30
2022-09-01T14:09:33.610Z,0.30
2022-09-01T14:19:58.358Z,0.38
2022-09-01T14:25:00.336Z,0.50
2022-09-01T14:30:08.709Z,0.40
2022-09-01T14:35:29.573Z,0.45
2022-09-01T14:40:44.190Z,0.40
2022-09-01T14:46:08.506Z,0.50
2022-09-01T14:52:10.428Z,0.70
2022-09-01T15:02:14.724Z,0.52
2022-09-01T15:07:29.543Z,0.50
2022-09-01T15:12:36.107Z,0.50
2022-09-01T15:17:39.093Z,0.40
2022-09-01T15:22:53.579Z,0.50
2022-09-01T15:28:07.646Z,0.40
2022-09-01T15:33:15.775Z,0.40
2022-09-01T15:38:27.159Z,0.55
2022-09-01T15:43:32.999Z,0.30
2022-09-01T15:48:36.037Z,0.50
2022-09-01T15:53:44.733Z,0.52
2022-09-01T15:59:02.277Z,0.43
2022-09-01T16:04:13.613Z,0.45
2022-09-01T16:09:24.497Z,0.40
2022-09-01T16:14:38.984Z,0.47
2022-09-01T16:19:55.961Z,0.40
2022-09-01T16:25:06.891Z,0.40
2022-09-01T16:30:16.117Z,0.43
2022-09-01T16:35:29.851Z,0.50
2022-09-01T16:40:46.576Z,0.52
2022-09-01T16:46:06.099Z,0.50
2022-09-01T16:51:23.329Z,0.60
2022-09-01T16:56:37.097Z,0.70
2022-09-01T17:01:55.086Z,0.50
2022-09-01T17:07:13.938Z,0.60
2022-09-01T17:12:41.194Z,0.63
2022-09-01T17:18:03.994Z,0.40
2022-09-01T17:23:13.503Z,0.50
2022-09-01T17:28:35.140Z,0.67
2022-09-01T17:34:01.751Z,0.60
2022-09-01T17:39:29.362Z,0.40
2022-09-01T17:44:43.623Z,0.53
2022-09-01T17:50:04.437Z,0.50
2022-09-01T17:55:31.441Z,2.07
2022-09-01T18:00:45.504Z,0.60
2022-09-01T18:06:02.575Z,0.70
2022-09-01T18:11:12.428Z,0.77
2022-09-01T18:16:18.984Z,0.80
2022-09-01T18:21:30.355Z,0.57
2022-09-01T18:26:40.240Z,0.77
2022-09-01T18:31:58.178Z,0.83
2022-09-01T18:37:12.060Z,0.60
2022-09-01T18:42:25.399Z,0.53
2022-09-01T18:48:03.365Z,0.90
2022-09-01T18:53:24.137Z,0.67
2022-09-01T18:58:51.507Z,0.70
2022-09-01T19:04:02.116Z,0.77
2022-09-01T19:09:13.422Z,0.97
2022-09-01T19:14:27.779Z,0.90
2022-09-01T19:19:40.606Z,0.70
2022-09-01T19:24:46.972Z,0.77
2022-09-01T19:29:52.286Z,1.23
2022-09-01T19:34:58.640Z,0.50
2022-09-01T19:40:00.345Z,0.70
2022-09-01T19:45:08.660Z,0.90
2022-09-01T19:50:17.828Z,0.80
2022-09-01T19:55:28.005Z,0.70
2022-09-01T20:00:41.155Z,1.03
2022-09-01T20:05:49.373Z,0.93
2022-09-01T20:10:59.727Z,1.00
2022-09-01T20:16:08.457Z,1.40
2022-09-01T20:21:14.841Z,0.90
2022-09-01T20:26:25.951Z,0.77
2022-09-01T20:31:31.868Z,0.80
2022-09-01T20:36:39.632Z,0.90
2022-09-01T20:41:45.345Z,0.90
2022-09-01T20:46:47.651Z,1.00
2022-09-01T20:51:57.747Z,0.80
2022-09-01T20:57:11.150Z,1.30
2022-09-01T21:02:28.451Z,1.00
2022-09-01T21:07:36.248Z,0.90
2022-09-01T21:12:42.640Z,0.93
2022-09-01T21:17:52.193Z,0.93
2022-09-01T21:22:56.027Z,1.07
2022-09-01T21:28:00.313Z,1.10
2022-09-01T21:33:02.761Z,1.00
2022-09-01T21:38:06.300Z,1.03
2022-09-01T21:43:14.465Z,0.90
2022-09-01T21:48:17.197Z,1.27
2022-09-01T21:53:22.364Z,1.03
2022-09-01T21:58:25.367Z,0.97
2022-09-01T22:03:29.594Z,1.23
2022-09-01T22:08:34.624Z,1.00
2022-09-01T22:13:39.113Z,0.90
2022-09-01T22:18:43.739Z,1.00
2022-09-01T22:23:48.617Z,0.87
2022-09-01T22:28:51.223Z,1.30
2022-09-01T22:33:53.728Z,1.20
2022-09-01T22:38:59.826Z,1.13
2022-09-01T22:44:03.268Z,1.30
2022-09-01T22:49:06.301Z,1.17
2022-09-01T22:54:10.400Z,1.27
2022-09-01T22:59:14.616Z,1.10
2022-09-01T23:04:18.052Z,1.53
2022-09-01T23:09:21.797Z,1.27
2022-09-01T23:14:23.537Z,1.20
2022-09-01T23:19:26.044Z,1.23
2022-09-01T23:24:29.532Z,1.33
2022-09-01T23:29:31.679Z,1.00
2022-09-01T23:34:33.990Z,1.23
2022-09-01T23:39:37.656Z,1.30
2022-09-01T23:44:40.165Z,1.40
2022-09-01T23:49:42.561Z,1.13
2022-09-01T23:54:46.074Z,1.23
2022-09-01T23:59:48.273Z,1.20
